• Join FlightAware (Why Join?)
  • Login
  • US Flag 
06:10AM EST


 

Airport Tracker/Info


-or-


 

Live Flight TrackerFlight Track Log ✈ RPA3159 ✈ 12-Jul-2013 ✈ KBTV - KPHL

Flight Track Log - Related Links

Times and Time Zones

All times are in EDT time to prevent confusion due to time zone crossing. See the RPA3159 flight status page for this flight to view local times or setup timezone preferences in your user account.

Time Position Orientation Groundspeed Altitude Reporting Facility
EDT Latitude Longitude Course Direction KTS MPH feet Rate Location/Type
11:43AM 44.2016 -73.2500 180° South  Level FlightAware Approximate
11:43AM 44.4064 -73.2711 195° South 252 290 6,300  Level Boston Center
11:44AM 44.1127 -73.2828 195° South  Level FlightAware Approximate
11:44AM 44.3206 -73.2989 193° South 282 325 9,400  Level Boston Center
11:45AM 44.0234 -73.3144 194° South  Level FlightAware Approximate
11:45AM 44.2392 -73.3267 194° South 299 344 11,200  Level Boston Center
11:46AM 43.9339 -73.3443 193° South  Level FlightAware Approximate
11:46AM 44.1494 -73.3572 194° South 326 375 13,500  Level Boston Center
11:47AM 43.8449 -73.3770 195° South  Level FlightAware Approximate
11:47AM 44.0636 -73.4081 203° Southwest 342 394 15,600  Level Boston Center
11:48AM 43.7560 -73.4104 195° South  Level FlightAware Approximate
11:48AM 43.9817 -73.4786 212° Southwest 348 400 17,600  Level Boston Center
11:49AM 43.8975 -73.5494 211° Southwest 354 407 19,300 1,680 Climbing Boston Center
11:50AM 43.8136 -73.6197 211° Southwest 354 407 21,000 1,500 Climbing Boston Center
11:51AM 43.7272 -73.6956 212° Southwest 368 423 22,300 1,200 Climbing Boston Center
11:52AM 43.6389 -73.7656 210° Southwest 368 423 23,500 1,200 Climbing Boston Center
11:53AM 43.5442 -73.8436 211° Southwest 382 440 24,800 1,200 Climbing Boston Center
11:54AM 43.4536 -73.9217 212° Southwest 387 445 26,000 600 Climbing Boston Center
11:55AM 43.3694 -73.9881 210° Southwest 387 445 26,000  Level Boston Center
11:56AM 43.2725 -74.0711 212° Southwest 387 445 26,000  Level Boston Center
11:57AM 43.1817 -74.1456 211° Southwest 387 445 26,000  Level Boston Center
11:58AM 43.0908 -74.2228 212° Southwest 387 445 26,000  Level Boston Center
11:59AM 42.9981 -74.2967 210° Southwest 392 451 26,000  Level Boston Center
12:00PM 42.9092 -74.3706 211° Southwest 392 451 26,000 -180 Level Boston Center
12:01PM 42.7992 -74.4606 211° Southwest 392 451 25,700 -840 Descending Boston Center
12:02PM 42.7083 -74.5339 211° Southwest 392 451 24,400 -900 Descending Boston Center
12:03PM 42.6153 -74.6097 211° Southwest 392 451 24,000 -240 Descending Boston Center
12:04PM 42.5242 -74.6825 210° Southwest 392 451 24,000 -600 Level Boston Center
12:05PM 42.4350 -74.7581 212° Southwest 392 451 22,900 -1,200 Descending Boston Center
12:06PM 42.3419 -74.8306 210° Southwest 392 451 21,600 -1,020 Descending Boston Center
12:08PM 42.1528 -74.9781 210° Southwest 368 423 19,800 -840 Descending New York Center
12:09PM 42.0647 -75.0561 213° Southwest 368 423 19,000 -420 Descending New York Center
12:10PM 41.9789 -75.1258 211° Southwest 373 429 19,000  Level New York Center
12:11PM 41.9017 -75.1878 211° Southwest 373 429 19,000  Level New York Center
12:12PM 41.8158 -75.2572 211° Southwest 373 429 19,000 -600 Level New York Center
12:13PM 41.7211 -75.3342 211° Southwest 373 429 17,800 -1,440 Descending New York Center
12:14PM 41.6375 -75.4006 211° Southwest 367 422 16,100 -1,740 Descending New York Center
12:15PM 41.5536 -75.4669 211° Southwest 362 417 14,300 -2,040 Descending New York Center
12:16PM 41.4803 -75.5281 212° Southwest 350 403 12,200 -1,200 Descending New York Center
12:17PM 41.4008 -75.5889 210° Southwest 350 403 12,000 -120 Descending New York Center
12:18PM 41.3147 -75.6572 211° Southwest 344 396 12,000  Level New York Center
12:19PM 41.2369 -75.7206 211° Southwest 338 389 12,000  Level New York Center
12:20PM 41.1594 -75.7839 212° Southwest 338 389 12,000  Level New York Center
12:21PM 41.0817 -75.8469 211° Southwest 333 383 12,000  Level New York Center
12:22PM 41.0106 -75.9022 210° Southwest 338 389 12,000  Level New York Center
12:23PM 40.9158 -75.9253 190° South 316 364 12,000  Level New York Center
12:24PM 40.8272 -75.9019 169° South 316 364 12,000  Level New York Center
12:25PM 40.7467 -75.8850 171° South 321 369 12,000 -420 Level New York Center
12:26PM 40.6519 -75.8617 169° South 321 369 11,200 -660 Descending New York Center
12:27PM 40.5656 -75.8361 167° South 321 369 10,800 -600 Descending New York Center
12:28PM 40.5036 -75.7686 140° Southeast 292 336 10,000 -420 Descending New York Center
12:29PM 40.4908 -75.6750 100° East 269 310 10,000  Level New York Center
12:30PM 40.4744 -75.5728 102° East 269 310 10,000  Level New York Center
12:31PM 40.4539 -75.4622 104° East 286 329 10,000 -420 Level New York Center
12:32PM 40.3939 -75.3983 141° Southeast 265 305 9,200 -1,440 Descending New York Center
12:33PM 40.3325 -75.3642 157° South 265 305 7,200 -1,200 Descending New York Center
12:34PM 40.2589 -75.3322 162° South 270 311 6,800 -660 Descending New York Center
12:35PM 40.1825 -75.3678 200° South 277 319 6,000 -420 Descending New York Center
12:36PM 40.1017 -75.4058 200° South 289 333 6,000  Level New York Center
12:37PM 40.0347 -75.4122 184° South 278 320 6,000  Level New York Center
12:38PM 39.9686 -75.3944 168° South 242 278 6,100  Climbing New York Center
12:39PM 39.9275 -75.4322 215° Southwest 183 211 6,000 -600 Descending New York Center
12:40PM 39.9103 -75.4989 251° West 175 201 5,000 -540 Descending New York Center
12:41PM 39.8931 -75.5625 251° West 202 232 5,000 -540 Level New York Center
12:42PM 39.8658 -75.6228 240° Southwest 202 232 4,000 -420 Descending New York Center
12:44PM 39.8000 -75.6000 165° South 174 200 4,100  Climbing Philadelphia TRACON
12:45PM 39.8000 -75.5500 90° East 160 184 4,000 -360 Descending Philadelphia TRACON
12:46PM 39.8167 -75.4833 72° East 160 184 3,400 -780 Descending Philadelphia TRACON
12:47PM 39.8333 -75.4333 67° East 161 185 2,500 -900 Descending Philadelphia TRACON
12:48PM 39.8333 -75.3833 90° East 162 186 1,600 -900 Descending Philadelphia TRACON